Altamont, UT

6:16 PM MDT on March 30, 2015 (GMT -0600)
RAWS | | Change Station
CLOSE
Current Station
Personal Weather Station
Location: Tabiona, UT
Elevation: 7311 ft
Nearby Weather Stations

Elev 7311 ft 40.28 °N, 110.56 °W | Updated 45 minutes ago

Clear
Clear
64 °F
Feels Like 64 °F
N
10
Wind Variable Wind from WNW
Gusts 22.0 mph

Today
High -- | Low -- °F
--% Chance of Precip.
Yesterday
High -- | Low -- °F
Precip. -- in
7:09 AM 7:44 PM
Waxing Gibbous, 83% visible
Pressure 30.00 in
Visibility 10.0 miles
Clouds Clear
Dew Point 10 °F
Humidity 12%
Rainfall in
Snow Depth Not available.
UV 1 out of 12
Pollen 11.70 out of 12
Air Quality Not available.
Flu Activity Not available.
METAR KVEL 302353Z AUTO 09003KT 10SM CLR 21/M09 A3010 RMK AO2 SLP159 T02111094 10222 20156 56021

More Conditions Fewer Conditions

Pressure 30.00 in
Visibility 10.0 miles
Clouds Clear
Dew Point 10 °F
Humidity 12%
Rainfall in
Snow Depth Not available.
UV 1 out of 12
Pollen 11.70 out of 12
Air Quality Not available.
Flu Activity Not available.
METAR KVEL 302353Z AUTO 09003KT 10SM CLR 21/M09 A3010 RMK AO2 SLP159 T02111094 10222 20156 56021

More Conditions Fewer Conditions

10-Day Weather Forecast

Almanac

Astronomy

Mar. 30, 2015 Rise Set
Actual Time
Civil Twilight
Nautical Twilight
Astronomical Twilight
Moon
Length of Visible Light
Length of Day
Tomorrow will be .
, % of the Moon is Illuminated

Today's Extremes

State Highs State Lows

Community

WunderPhotos

Upload Photos

1,809,622 photos uploaded!

WunderBlogs® & News

Nearby

Air Quality

  Air Quality AQ Index Pollutant
Not available.

Snow Depth

Station Depth Elevation

Earthquake Activity

City Distance Mag. Time & Date
Minimum magnitude displayed is 2.5.

Coastal Water Temperatures

Place Temperature

Stations

Nearby Weather Stations

Station Location Temp. Windchill Dew Point Humidity Wind Precip. Elev Updated Type